sensor_id;sensor_type;location;lat;lon;timestamp;pressure;altitude;pressure_sealevel;temperature;humidity
28626;BME280;18905;42.668;23.364;2022-07-22T00:01:47;95113.97;;;24.17;78.43
28626;BME280;18905;42.668;23.364;2022-07-22T00:04:13;95142.19;;;24.46;75.96
28626;BME280;18905;42.668;23.364;2022-07-22T00:06:38;95110.25;;;24.45;73.79
28626;BME280;18905;42.668;23.364;2022-07-22T00:09:03;95126.88;;;24.89;73.99
28626;BME280;18905;42.668;23.364;2022-07-22T00:11:29;95113.94;;;25.26;68.64
28626;BME280;18905;42.668;23.364;2022-07-22T00:13:54;95141.47;;;25.37;70.41
28626;BME280;18905;42.668;23.364;2022-07-22T00:16:20;95116.56;;;24.42;72.35
28626;BME280;18905;42.668;23.364;2022-07-22T00:18:45;95140.00;;;24.13;74.47
28626;BME280;18905;42.668;23.364;2022-07-22T00:21:11;95120.50;;;23.58;76.69
28626;BME280;18905;42.668;23.364;2022-07-22T00:23:36;95158.28;;;23.72;78.37
28626;BME280;18905;42.668;23.364;2022-07-22T00:26:02;95119.41;;;23.31;79.15
28626;BME280;18905;42.668;23.364;2022-07-22T00:28:27;95146.19;;;23.17;80.37
28626;BME280;18905;42.668;23.364;2022-07-22T00:30:52;95163.09;;;23.40;79.99
28626;BME280;18905;42.668;23.364;2022-07-22T00:33:18;95160.34;;;23.40;73.59
28626;BME280;18905;42.668;23.364;2022-07-22T00:35:43;95148.44;;;23.74;71.08
28626;BME280;18905;42.668;23.364;2022-07-22T00:38:09;95133.31;;;24.07;65.86
28626;BME280;18905;42.668;23.364;2022-07-22T00:40:35;95147.59;;;24.63;63.36
28626;BME280;18905;42.668;23.364;2022-07-22T00:43:00;95151.88;;;24.71;61.83
28626;BME280;18905;42.668;23.364;2022-07-22T00:45:26;95128.31;;;24.53;62.37
28626;BME280;18905;42.668;23.364;2022-07-22T00:47:51;95157.94;;;25.03;60.51
28626;BME280;18905;42.668;23.364;2022-07-22T00:50:17;95140.13;;;25.08;59.96
28626;BME280;18905;42.668;23.364;2022-07-22T00:52:45;95162.44;;;25.31;59.41
28626;BME280;18905;42.668;23.364;2022-07-22T00:55:11;95152.50;;;25.40;59.72
28626;BME280;18905;42.668;23.364;2022-07-22T00:57:36;95130.31;;;25.03;62.31
28626;BME280;18905;42.668;23.364;2022-07-22T01:00:05;95150.22;;;25.32;59.37
28626;BME280;18905;42.668;23.364;2022-07-22T01:02:32;95148.59;;;25.71;59.27
28626;BME280;18905;42.668;23.364;2022-07-22T01:04:58;95132.59;;;25.56;58.33
28626;BME280;18905;42.668;23.364;2022-07-22T01:07:23;95142.34;;;26.01;56.44
28626;BME280;18905;42.668;23.364;2022-07-22T01:09:49;95117.84;;;25.66;56.81
28626;BME280;18905;42.668;23.364;2022-07-22T01:12:15;95147.06;;;25.67;57.16
28626;BME280;18905;42.668;23.364;2022-07-22T01:14:41;95117.13;;;25.18;59.06
28626;BME280;18905;42.668;23.364;2022-07-22T01:17:06;95130.75;;;25.42;58.97
28626;BME280;18905;42.668;23.364;2022-07-22T01:19:32;95153.59;;;25.46;58.88
28626;BME280;18905;42.668;23.364;2022-07-22T01:21:57;95147.97;;;25.57;58.27
28626;BME280;18905;42.668;23.364;2022-07-22T01:24:23;95142.13;;;25.48;58.86
28626;BME280;18905;42.668;23.364;2022-07-22T01:26:48;95107.16;;;25.31;60.01
28626;BME280;18905;42.668;23.364;2022-07-22T01:29:13;95123.06;;;25.20;60.07
28626;BME280;18905;42.668;23.364;2022-07-22T01:31:39;95110.44;;;25.15;61.15
28626;BME280;18905;42.668;23.364;2022-07-22T01:34:04;95128.31;;;25.04;61.37
28626;BME280;18905;42.668;23.364;2022-07-22T01:36:30;95120.34;;;24.69;63.68
28626;BME280;18905;42.668;23.364;2022-07-22T01:38:55;95140.03;;;24.71;64.14
28626;BME280;18905;42.668;23.364;2022-07-22T01:41:21;95144.19;;;24.35;66.75
28626;BME280;18905;42.668;23.364;2022-07-22T01:43:46;95142.63;;;24.34;66.57
28626;BME280;18905;42.668;23.364;2022-07-22T01:46:12;95140.31;;;24.29;66.51
28626;BME280;18905;42.668;23.364;2022-07-22T01:48:37;95144.34;;;24.79;63.38
28626;BME280;18905;42.668;23.364;2022-07-22T01:51:03;95121.69;;;24.98;61.73
28626;BME280;18905;42.668;23.364;2022-07-22T01:53:29;95149.63;;;25.47;61.10
28626;BME280;18905;42.668;23.364;2022-07-22T01:55:54;95124.09;;;25.36;59.59
28626;BME280;18905;42.668;23.364;2022-07-22T01:58:19;95143.41;;;25.40;60.76
28626;BME280;18905;42.668;23.364;2022-07-22T02:00:45;95150.22;;;25.69;59.11
28626;BME280;18905;42.668;23.364;2022-07-22T02:03:10;95132.03;;;25.34;59.54
28626;BME280;18905;42.668;23.364;2022-07-22T02:05:36;95153.44;;;25.20;60.82
28626;BME280;18905;42.668;23.364;2022-07-22T02:08:08;95133.06;;;24.52;62.97
28626;BME280;18905;42.668;23.364;2022-07-22T02:10:34;95146.53;;;24.40;65.25
28626;BME280;18905;42.668;23.364;2022-07-22T02:13:00;95158.97;;;24.04;67.85
28626;BME280;18905;42.668;23.364;2022-07-22T02:15:26;95153.91;;;23.78;69.91
28626;BME280;18905;42.668;23.364;2022-07-22T02:17:53;95146.19;;;23.24;72.93
28626;BME280;18905;42.668;23.364;2022-07-22T02:20:19;95168.22;;;22.82;76.40
28626;BME280;18905;42.668;23.364;2022-07-22T02:22:45;95178.38;;;22.36;81.22
28626;BME280;18905;42.668;23.364;2022-07-22T02:25:10;95140.44;;;21.70;85.73
28626;BME280;18905;42.668;23.364;2022-07-22T02:27:36;95172.66;;;21.73;88.27
28626;BME280;18905;42.668;23.364;2022-07-22T02:30:04;95175.28;;;21.59;89.67
28626;BME280;18905;42.668;23.364;2022-07-22T02:32:29;95165.78;;;21.42;91.25
28626;BME280;18905;42.668;23.364;2022-07-22T02:34:55;95174.41;;;21.41;91.44
28626;BME280;18905;42.668;23.364;2022-07-22T02:37:20;95168.28;;;21.68;90.00
28626;BME280;18905;42.668;23.364;2022-07-22T02:39:46;95171.38;;;21.56;89.95
28626;BME280;18905;42.668;23.364;2022-07-22T02:42:11;95142.94;;;22.10;84.94
28626;BME280;18905;42.668;23.364;2022-07-22T02:44:37;95163.13;;;23.19;78.33
28626;BME280;18905;42.668;23.364;2022-07-22T02:47:03;95147.38;;;22.81;79.92
28626;BME280;18905;42.668;23.364;2022-07-22T02:49:28;95167.81;;;22.55;83.42
28626;BME280;18905;42.668;23.364;2022-07-22T02:51:53;95169.66;;;22.20;85.46
28626;BME280;18905;42.668;23.364;2022-07-22T02:54:19;95145.75;;;22.34;84.88
28626;BME280;18905;42.668;23.364;2022-07-22T02:56:44;95177.66;;;22.88;81.54
28626;BME280;18905;42.668;23.364;2022-07-22T02:59:10;95141.47;;;23.00;77.96
28626;BME280;18905;42.668;23.364;2022-07-22T03:01:35;95141.88;;;23.05;79.13
28626;BME280;18905;42.668;23.364;2022-07-22T03:04:01;95137.53;;;23.29;77.21
28626;BME280;18905;42.668;23.364;2022-07-22T03:06:26;95166.59;;;23.54;75.98
28626;BME280;18905;42.668;23.364;2022-07-22T03:08:51;95164.66;;;23.51;77.69
28626;BME280;18905;42.668;23.364;2022-07-22T03:11:17;95168.22;;;23.27;78.31
28626;BME280;18905;42.668;23.364;2022-07-22T03:13:42;95159.56;;;23.01;81.59
28626;BME280;18905;42.668;23.364;2022-07-22T03:16:08;95177.69;;;22.95;81.85
28626;BME280;18905;42.668;23.364;2022-07-22T03:18:34;95159.19;;;22.78;82.12
28626;BME280;18905;42.668;23.364;2022-07-22T03:20:59;95159.97;;;22.68;83.58
28626;BME280;18905;42.668;23.364;2022-07-22T03:23:25;95168.94;;;23.56;78.42
28626;BME280;18905;42.668;23.364;2022-07-22T03:25:50;95147.94;;;24.04;73.81
28626;BME280;18905;42.668;23.364;2022-07-22T03:28:16;95162.97;;;24.68;70.39
28626;BME280;18905;42.668;23.364;2022-07-22T03:30:41;95161.91;;;25.02;69.41
28626;BME280;18905;42.668;23.364;2022-07-22T03:33:06;95145.91;;;25.27;66.33
28626;BME280;18905;42.668;23.364;2022-07-22T03:35:32;95169.47;;;25.76;66.61
28626;BME280;18905;42.668;23.364;2022-07-22T03:37:57;95155.81;;;25.62;63.96
28626;BME280;18905;42.668;23.364;2022-07-22T03:40:23;95171.53;;;25.68;63.88
28626;BME280;18905;42.668;23.364;2022-07-22T03:42:48;95172.75;;;25.67;62.99
28626;BME280;18905;42.668;23.364;2022-07-22T03:45:13;95178.34;;;25.60;64.96
28626;BME280;18905;42.668;23.364;2022-07-22T03:47:39;95177.22;;;25.54;64.33
28626;BME280;18905;42.668;23.364;2022-07-22T03:50:05;95164.66;;;25.46;66.10
28626;BME280;18905;42.668;23.364;2022-07-22T03:52:31;95140.19;;;25.45;64.84
28626;BME280;18905;42.668;23.364;2022-07-22T03:54:56;95178.31;;;25.64;65.43
28626;BME280;18905;42.668;23.364;2022-07-22T03:57:22;95175.81;;;25.36;67.20
28626;BME280;18905;42.668;23.364;2022-07-22T03:59:47;95195.56;;;25.38;65.62
28626;BME280;18905;42.668;23.364;2022-07-22T04:02:13;95186.09;;;25.35;66.61
28626;BME280;18905;42.668;23.364;2022-07-22T04:04:39;95184.41;;;25.45;65.04
28626;BME280;18905;42.668;23.364;2022-07-22T04:07:04;95178.81;;;25.08;66.93
28626;BME280;18905;42.668;23.364;2022-07-22T04:09:30;95180.31;;;25.16;66.05
28626;BME280;18905;42.668;23.364;2022-07-22T04:11:55;95209.53;;;24.59;68.13
28626;BME280;18905;42.668;23.364;2022-07-22T04:14:21;95196.66;;;24.96;67.50
28626;BME280;18905;42.668;23.364;2022-07-22T04:16:46;95194.84;;;25.27;66.50
28626;BME280;18905;42.668;23.364;2022-07-22T04:19:12;95203.72;;;25.52;65.04
28626;BME280;18905;42.668;23.364;2022-07-22T04:21:37;95191.09;;;25.51;61.64
28626;BME280;18905;42.668;23.364;2022-07-22T04:24:03;95200.75;;;25.73;61.45
28626;BME280;18905;42.668;23.364;2022-07-22T04:26:29;95199.03;;;25.82;63.43
28626;BME280;18905;42.668;23.364;2022-07-22T04:28:54;95204.66;;;26.12;63.21
28626;BME280;18905;42.668;23.364;2022-07-22T04:31:19;95197.66;;;26.64;60.95
28626;BME280;18905;42.668;23.364;2022-07-22T04:33:45;95198.41;;;27.21;57.33
28626;BME280;18905;42.668;23.364;2022-07-22T04:36:10;95211.06;;;27.68;56.24
28626;BME280;18905;42.668;23.364;2022-07-22T04:38:36;95200.25;;;27.97;53.17
28626;BME280;18905;42.668;23.364;2022-07-22T04:41:01;95209.44;;;28.52;52.00
28626;BME280;18905;42.668;23.364;2022-07-22T04:43:27;95215.09;;;28.85;50.61
28626;BME280;18905;42.668;23.364;2022-07-22T04:45:52;95202.91;;;28.43;50.30
28626;BME280;18905;42.668;23.364;2022-07-22T04:48:18;95218.13;;;28.15;52.59
28626;BME280;18905;42.668;23.364;2022-07-22T04:50:43;95222.25;;;28.27;53.15
28626;BME280;18905;42.668;23.364;2022-07-22T04:53:09;95225.63;;;28.93;50.94
28626;BME280;18905;42.668;23.364;2022-07-22T04:55:34;95189.03;;;29.62;47.73
28626;BME280;18905;42.668;23.364;2022-07-22T04:58:00;95231.09;;;30.25;45.92
28626;BME280;18905;42.668;23.364;2022-07-22T05:00:25;95225.00;;;30.71;44.55
28626;BME280;18905;42.668;23.364;2022-07-22T05:02:51;95207.63;;;30.92;43.66
28626;BME280;18905;42.668;23.364;2022-07-22T05:05:17;95222.81;;;31.41;42.27
28626;BME280;18905;42.668;23.364;2022-07-22T05:07:43;95231.75;;;31.61;41.33
28626;BME280;18905;42.668;23.364;2022-07-22T05:10:09;95229.19;;;31.41;41.45
28626;BME280;18905;42.668;23.364;2022-07-22T05:12:35;95226.06;;;31.14;42.21
28626;BME280;18905;42.668;23.364;2022-07-22T05:15:01;95221.03;;;31.09;41.92
28626;BME280;18905;42.668;23.364;2022-07-22T05:17:27;95229.53;;;31.06;41.89
28626;BME280;18905;42.668;23.364;2022-07-22T05:19:53;95187.06;;;30.61;42.02
28626;BME280;18905;42.668;23.364;2022-07-22T05:22:18;95213.91;;;31.08;41.34
28626;BME280;18905;42.668;23.364;2022-07-22T05:24:43;95226.38;;;31.16;41.63
28626;BME280;18905;42.668;23.364;2022-07-22T05:27:09;95222.28;;;31.08;41.25
28626;BME280;18905;42.668;23.364;2022-07-22T05:29:34;95215.66;;;31.15;40.91
28626;BME280;18905;42.668;23.364;2022-07-22T05:32:00;95237.22;;;31.64;40.69
28626;BME280;18905;42.668;23.364;2022-07-22T05:34:25;95246.03;;;31.75;41.01
28626;BME280;18905;42.668;23.364;2022-07-22T05:36:51;95240.00;;;31.77;40.26
28626;BME280;18905;42.668;23.364;2022-07-22T05:39:16;95239.47;;;32.03;39.78
28626;BME280;18905;42.668;23.364;2022-07-22T05:41:42;95229.22;;;32.34;39.17
28626;BME280;18905;42.668;23.364;2022-07-22T05:44:08;95229.09;;;32.81;38.85
28626;BME280;18905;42.668;23.364;2022-07-22T05:46:33;95227.84;;;33.43;37.54
28626;BME280;18905;42.668;23.364;2022-07-22T05:48:59;95233.84;;;33.63;37.16
28626;BME280;18905;42.668;23.364;2022-07-22T05:51:24;95210.75;;;33.89;36.58
28626;BME280;18905;42.668;23.364;2022-07-22T05:53:49;95216.66;;;33.91;36.03
28626;BME280;18905;42.668;23.364;2022-07-22T05:56:15;95230.50;;;33.86;36.29
28626;BME280;18905;42.668;23.364;2022-07-22T05:58:42;95231.56;;;33.31;37.30
28626;BME280;18905;42.668;23.364;2022-07-22T06:01:08;95240.28;;;33.33;36.88
28626;BME280;18905;42.668;23.364;2022-07-22T06:03:34;95236.78;;;33.59;36.52
28626;BME280;18905;42.668;23.364;2022-07-22T06:06:00;95233.50;;;33.52;36.55
28626;BME280;18905;42.668;23.364;2022-07-22T06:08:27;95220.72;;;33.11;37.04
28626;BME280;18905;42.668;23.364;2022-07-22T06:10:53;95230.22;;;32.83;37.28
28626;BME280;18905;42.668;23.364;2022-07-22T06:13:18;95217.19;;;31.91;38.87
28626;BME280;18905;42.668;23.364;2022-07-22T06:15:44;95222.00;;;32.67;37.41
28626;BME280;18905;42.668;23.364;2022-07-22T06:18:09;95229.31;;;33.17;38.39
28626;BME280;18905;42.668;23.364;2022-07-22T06:20:35;95231.22;;;33.77;36.42
28626;BME280;18905;42.668;23.364;2022-07-22T06:23:00;95208.81;;;33.77;35.97
28626;BME280;18905;42.668;23.364;2022-07-22T06:25:26;95219.47;;;34.72;34.89
28626;BME280;18905;42.668;23.364;2022-07-22T06:27:51;95232.59;;;34.57;35.00
28626;BME280;18905;42.668;23.364;2022-07-22T06:30:17;95227.09;;;33.91;35.10
28626;BME280;18905;42.668;23.364;2022-07-22T06:32:42;95221.34;;;33.94;36.00
28626;BME280;18905;42.668;23.364;2022-07-22T06:35:08;95229.34;;;34.41;35.39
28626;BME280;18905;42.668;23.364;2022-07-22T06:37:33;95212.06;;;34.33;35.61
28626;BME280;18905;42.668;23.364;2022-07-22T06:39:58;95200.34;;;34.53;35.37
28626;BME280;18905;42.668;23.364;2022-07-22T06:42:24;95194.72;;;33.81;35.66
28626;BME280;18905;42.668;23.364;2022-07-22T06:44:50;95215.28;;;33.08;36.44
28626;BME280;18905;42.668;23.364;2022-07-22T06:47:16;95223.97;;;33.40;35.94
28626;BME280;18905;42.668;23.364;2022-07-22T06:49:41;95232.75;;;33.60;36.41
28626;BME280;18905;42.668;23.364;2022-07-22T06:52:06;95211.56;;;34.26;35.39
28626;BME280;18905;42.668;23.364;2022-07-22T06:54:32;95226.19;;;34.30;34.90
28626;BME280;18905;42.668;23.364;2022-07-22T06:56:57;95225.09;;;34.45;35.44
28626;BME280;18905;42.668;23.364;2022-07-22T06:59:23;95202.41;;;35.12;33.69
28626;BME280;18905;42.668;23.364;2022-07-22T07:01:49;95210.31;;;35.22;33.42
28626;BME280;18905;42.668;23.364;2022-07-22T07:04:15;95201.91;;;34.54;34.21
28626;BME280;18905;42.668;23.364;2022-07-22T07:06:40;95231.63;;;34.06;34.96
28626;BME280;18905;42.668;23.364;2022-07-22T07:09:06;95217.75;;;34.66;34.38
28626;BME280;18905;42.668;23.364;2022-07-22T07:11:32;95209.88;;;34.37;34.31
28626;BME280;18905;42.668;23.364;2022-07-22T07:13:58;95233.03;;;32.28;38.18
28626;BME280;18905;42.668;23.364;2022-07-22T07:16:23;95227.63;;;34.34;34.81
28626;BME280;18905;42.668;23.364;2022-07-22T07:18:49;95219.81;;;34.56;35.10
28626;BME280;18905;42.668;23.364;2022-07-22T07:21:14;95224.56;;;33.35;35.66
28626;BME280;18905;42.668;23.364;2022-07-22T07:23:39;95226.03;;;31.64;38.54
28626;BME280;18905;42.668;23.364;2022-07-22T07:26:05;95230.25;;;32.49;38.12
28626;BME280;18905;42.668;23.364;2022-07-22T07:28:30;95208.34;;;31.92;37.69
28626;BME280;18905;42.668;23.364;2022-07-22T07:30:56;95231.63;;;32.45;38.35
28626;BME280;18905;42.668;23.364;2022-07-22T07:33:21;95224.41;;;31.29;39.36
28626;BME280;18905;42.668;23.364;2022-07-22T07:35:47;95217.91;;;31.20;39.77
28626;BME280;18905;42.668;23.364;2022-07-22T07:38:12;95234.19;;;30.84;40.13
28626;BME280;18905;42.668;23.364;2022-07-22T07:40:38;95224.06;;;31.27;38.63
28626;BME280;18905;42.668;23.364;2022-07-22T07:43:03;95232.19;;;31.59;38.74
28626;BME280;18905;42.668;23.364;2022-07-22T07:45:29;95228.72;;;31.55;40.28
28626;BME280;18905;42.668;23.364;2022-07-22T07:47:55;95216.44;;;31.15;40.49
28626;BME280;18905;42.668;23.364;2022-07-22T07:50:20;95217.38;;;31.25;40.22
28626;BME280;18905;42.668;23.364;2022-07-22T07:52:46;95212.88;;;30.77;39.88
28626;BME280;18905;42.668;23.364;2022-07-22T07:55:14;95227.06;;;31.08;39.80
28626;BME280;18905;42.668;23.364;2022-07-22T07:57:40;95230.34;;;30.78;40.32
28626;BME280;18905;42.668;23.364;2022-07-22T08:00:09;95231.19;;;31.41;39.21
28626;BME280;18905;42.668;23.364;2022-07-22T08:02:36;95230.50;;;32.21;37.75
28626;BME280;18905;42.668;23.364;2022-07-22T08:05:02;95207.75;;;32.31;38.05
28626;BME280;18905;42.668;23.364;2022-07-22T08:07:28;95227.06;;;32.60;37.29
28626;BME280;18905;42.668;23.364;2022-07-22T08:09:53;95228.44;;;32.77;36.98
28626;BME280;18905;42.668;23.364;2022-07-22T08:12:19;95217.81;;;32.93;37.05
28626;BME280;18905;42.668;23.364;2022-07-22T08:14:44;95220.72;;;32.25;37.33
28626;BME280;18905;42.668;23.364;2022-07-22T08:17:09;95235.78;;;32.62;36.47
28626;BME280;18905;42.668;23.364;2022-07-22T08:19:35;95229.13;;;33.11;36.58
28626;BME280;18905;42.668;23.364;2022-07-22T08:22:00;95214.31;;;33.32;34.81
28626;BME280;18905;42.668;23.364;2022-07-22T08:24:26;95203.22;;;33.77;34.19
28626;BME280;18905;42.668;23.364;2022-07-22T08:26:51;95219.63;;;33.09;36.43
28626;BME280;18905;42.668;23.364;2022-07-22T08:29:17;95233.56;;;33.00;35.63
28626;BME280;18905;42.668;23.364;2022-07-22T08:31:43;95237.03;;;33.43;34.00
28626;BME280;18905;42.668;23.364;2022-07-22T08:34:08;95235.41;;;33.64;35.03
28626;BME280;18905;42.668;23.364;2022-07-22T08:36:33;95231.72;;;33.36;35.71
28626;BME280;18905;42.668;23.364;2022-07-22T08:38:59;95228.91;;;33.36;34.76
28626;BME280;18905;42.668;23.364;2022-07-22T08:41:24;95230.00;;;33.78;33.39
28626;BME280;18905;42.668;23.364;2022-07-22T08:43:51;95209.47;;;33.81;33.19
28626;BME280;18905;42.668;23.364;2022-07-22T08:46:17;95215.13;;;34.08;33.69
28626;BME280;18905;42.668;23.364;2022-07-22T08:48:42;95231.16;;;33.50;33.98
28626;BME280;18905;42.668;23.364;2022-07-22T08:51:08;95223.97;;;33.10;33.29
28626;BME280;18905;42.668;23.364;2022-07-22T08:53:34;95227.59;;;33.19;32.98
28626;BME280;18905;42.668;23.364;2022-07-22T08:56:00;95236.03;;;33.28;33.72
28626;BME280;18905;42.668;23.364;2022-07-22T08:58:26;95225.66;;;33.38;35.30
28626;BME280;18905;42.668;23.364;2022-07-22T09:01:09;95233.25;;;33.68;33.08
28626;BME280;18905;42.668;23.364;2022-07-22T09:03:44;95215.75;;;34.12;32.61
28626;BME280;18905;42.668;23.364;2022-07-22T09:06:11;95222.31;;;34.36;31.74
28626;BME280;18905;42.668;23.364;2022-07-22T09:08:53;95230.28;;;33.71;34.03
28626;BME280;18905;42.668;23.364;2022-07-22T09:11:21;95235.03;;;33.44;33.17
28626;BME280;18905;42.668;23.364;2022-07-22T09:13:47;95217.59;;;33.97;33.25
28626;BME280;18905;42.668;23.364;2022-07-22T09:16:13;95228.19;;;33.93;35.22
28626;BME280;18905;42.668;23.364;2022-07-22T09:21:11;95233.50;;;34.18;32.42
28626;BME280;18905;42.668;23.364;2022-07-22T09:23:40;95231.78;;;34.12;33.80
28626;BME280;18905;42.668;23.364;2022-07-22T09:26:06;95235.81;;;34.11;32.86
28626;BME280;18905;42.668;23.364;2022-07-22T09:28:32;95219.22;;;33.59;31.53
28626;BME280;18905;42.668;23.364;2022-07-22T09:30:57;95226.84;;;33.67;32.25
28626;BME280;18905;42.668;23.364;2022-07-22T09:33:23;95213.69;;;33.86;31.63
28626;BME280;18905;42.668;23.364;2022-07-22T09:35:49;95223.03;;;33.34;32.47
28626;BME280;18905;42.668;23.364;2022-07-22T09:38:16;95226.09;;;33.76;33.39
28626;BME280;18905;42.668;23.364;2022-07-22T09:40:44;95227.41;;;34.02;31.52
28626;BME280;18905;42.668;23.364;2022-07-22T09:43:12;95219.81;;;34.11;31.53
28626;BME280;18905;42.668;23.364;2022-07-22T09:46:04;95226.56;;;33.74;32.34
28626;BME280;18905;42.668;23.364;2022-07-22T09:48:30;95208.28;;;34.36;34.13
28626;BME280;18905;42.668;23.364;2022-07-22T09:50:56;95226.47;;;33.38;32.22
28626;BME280;18905;42.668;23.364;2022-07-22T09:53:24;95219.78;;;33.93;33.20
28626;BME280;18905;42.668;23.364;2022-07-22T09:55:50;95220.09;;;34.04;31.92
28626;BME280;18905;42.668;23.364;2022-07-22T09:58:16;95215.88;;;33.82;32.95
28626;BME280;18905;42.668;23.364;2022-07-22T10:00:42;95209.19;;;33.97;31.70
28626;BME280;18905;42.668;23.364;2022-07-22T10:03:13;95212.94;;;34.03;33.01
28626;BME280;18905;42.668;23.364;2022-07-22T10:05:43;95207.97;;;34.52;32.67
28626;BME280;18905;42.668;23.364;2022-07-22T10:08:09;95208.44;;;34.60;32.45
28626;BME280;18905;42.668;23.364;2022-07-22T10:10:36;95196.31;;;34.54;32.47
28626;BME280;18905;42.668;23.364;2022-07-22T10:13:03;95203.53;;;34.96;33.29
28626;BME280;18905;42.668;23.364;2022-07-22T10:15:31;95207.16;;;34.70;32.03
28626;BME280;18905;42.668;23.364;2022-07-22T10:18:02;95211.06;;;34.27;32.33
28626;BME280;18905;42.668;23.364;2022-07-22T10:20:30;95200.03;;;34.42;32.04
28626;BME280;18905;42.668;23.364;2022-07-22T10:22:59;95201.69;;;34.93;31.37
28626;BME280;18905;42.668;23.364;2022-07-22T10:25:27;95182.88;;;35.27;30.65
28626;BME280;18905;42.668;23.364;2022-07-22T10:27:58;95194.50;;;35.43;33.48
28626;BME280;18905;42.668;23.364;2022-07-22T10:30:29;95184.50;;;35.75;30.05
28626;BME280;18905;42.668;23.364;2022-07-22T10:33:29;95189.69;;;35.44;30.27
28626;BME280;18905;42.668;23.364;2022-07-22T10:35:59;95190.50;;;35.91;30.03
28626;BME280;18905;42.668;23.364;2022-07-22T10:38:27;95188.84;;;35.85;30.02
28626;BME280;18905;42.668;23.364;2022-07-22T10:41:03;95185.84;;;34.54;31.69
28626;BME280;18905;42.668;23.364;2022-07-22T10:43:29;95182.44;;;34.05;31.68
28626;BME280;18905;42.668;23.364;2022-07-22T10:46:00;95179.16;;;34.43;32.30
28626;BME280;18905;42.668;23.364;2022-07-22T10:51:09;95175.25;;;34.58;31.46
28626;BME280;18905;42.668;23.364;2022-07-22T10:56:36;95188.34;;;34.16;31.19
28626;BME280;18905;42.668;23.364;2022-07-22T11:01:34;95172.38;;;34.94;32.38
28626;BME280;18905;42.668;23.364;2022-07-22T11:04:14;95179.47;;;35.13;30.27
28626;BME280;18905;42.668;23.364;2022-07-22T11:06:41;95166.34;;;34.78;32.10
28626;BME280;18905;42.668;23.364;2022-07-22T11:09:10;95166.69;;;34.44;30.39
28626;BME280;18905;42.668;23.364;2022-07-22T11:17:11;95180.19;;;34.72;30.72
28626;BME280;18905;42.668;23.364;2022-07-22T11:19:39;95178.41;;;34.51;30.66
28626;BME280;18905;42.668;23.364;2022-07-22T11:22:09;95170.03;;;34.93;30.11
28626;BME280;18905;42.668;23.364;2022-07-22T11:24:36;95168.69;;;35.30;30.27
28626;BME280;18905;42.668;23.364;2022-07-22T11:27:03;95169.13;;;35.28;29.84
28626;BME280;18905;42.668;23.364;2022-07-22T11:29:37;95168.72;;;35.54;29.79
28626;BME280;18905;42.668;23.364;2022-07-22T11:32:06;95149.44;;;35.38;29.69
28626;BME280;18905;42.668;23.364;2022-07-22T11:34:32;95160.69;;;35.38;30.31
28626;BME280;18905;42.668;23.364;2022-07-22T11:36:58;95163.44;;;35.14;30.49
28626;BME280;18905;42.668;23.364;2022-07-22T11:39:27;95151.13;;;35.11;31.24
28626;BME280;18905;42.668;23.364;2022-07-22T11:41:54;95155.28;;;35.58;30.77
28626;BME280;18905;42.668;23.364;2022-07-22T11:44:25;95159.84;;;35.79;29.95
28626;BME280;18905;42.668;23.364;2022-07-22T11:46:51;95172.59;;;35.89;30.49
28626;BME280;18905;42.668;23.364;2022-07-22T11:49:19;95154.50;;;35.57;30.52
28626;BME280;18905;42.668;23.364;2022-07-22T11:51:45;95133.81;;;35.46;29.25
28626;BME280;18905;42.668;23.364;2022-07-22T11:54:10;95126.31;;;35.75;28.97
28626;BME280;18905;42.668;23.364;2022-07-22T11:56:36;95161.41;;;35.80;29.81
28626;BME280;18905;42.668;23.364;2022-07-22T11:59:03;95120.81;;;35.81;29.01
28626;BME280;18905;42.668;23.364;2022-07-22T12:01:31;95117.53;;;35.26;29.75
28626;BME280;18905;42.668;23.364;2022-07-22T12:03:59;95154.91;;;34.99;30.25
28626;BME280;18905;42.668;23.364;2022-07-22T12:06:26;95141.63;;;35.42;29.87
28626;BME280;18905;42.668;23.364;2022-07-22T12:08:55;95152.47;;;36.05;29.43
28626;BME280;18905;42.668;23.364;2022-07-22T12:11:23;95151.28;;;35.97;29.34
28626;BME280;18905;42.668;23.364;2022-07-22T12:13:51;95155.06;;;35.38;29.37
28626;BME280;18905;42.668;23.364;2022-07-22T12:16:28;95147.75;;;34.98;30.30
28626;BME280;18905;42.668;23.364;2022-07-22T12:19:06;95145.50;;;35.11;30.13
28626;BME280;18905;42.668;23.364;2022-07-22T12:21:48;95147.03;;;35.54;30.24
28626;BME280;18905;42.668;23.364;2022-07-22T12:24:14;95140.66;;;35.77;29.34
28626;BME280;18905;42.668;23.364;2022-07-22T12:31:44;95147.84;;;34.26;30.53
28626;BME280;18905;42.668;23.364;2022-07-22T12:34:11;95125.78;;;34.01;30.46
28626;BME280;18905;42.668;23.364;2022-07-22T12:36:37;95133.81;;;34.53;30.42
28626;BME280;18905;42.668;23.364;2022-07-22T12:39:13;95127.94;;;33.79;31.50
28626;BME280;18905;42.668;23.364;2022-07-22T12:41:45;95139.78;;;34.28;31.33
28626;BME280;18905;42.668;23.364;2022-07-22T12:44:19;95144.91;;;34.30;30.42
28626;BME280;18905;42.668;23.364;2022-07-22T12:46:47;95129.03;;;34.36;30.07
28626;BME280;18905;42.668;23.364;2022-07-22T12:49:15;95137.00;;;34.37;29.42
28626;BME280;18905;42.668;23.364;2022-07-22T12:51:40;95115.78;;;34.18;29.42
28626;BME280;18905;42.668;23.364;2022-07-22T12:54:06;95128.25;;;34.17;29.71
28626;BME280;18905;42.668;23.364;2022-07-22T12:56:31;95138.84;;;34.13;29.87
28626;BME280;18905;42.668;23.364;2022-07-22T12:58:58;95129.16;;;34.41;29.87
28626;BME280;18905;42.668;23.364;2022-07-22T13:01:24;95101.72;;;34.54;28.88
28626;BME280;18905;42.668;23.364;2022-07-22T13:03:49;95134.78;;;34.23;29.23
28626;BME280;18905;42.668;23.364;2022-07-22T13:06:15;95133.03;;;34.53;29.66
28626;BME280;18905;42.668;23.364;2022-07-22T13:08:40;95115.50;;;34.16;27.96